Time,TemperatureF,DewpointF,PressureIn,WindDirection,WindDirectionDegrees,WindSpeedMPH,WindSpeedGustMPH,Humidity,HourlyPrecipIn,Conditions,Clouds,dailyrainin,SoftwareType,DateUTC
2013-10-11 00:00:00,49.6,48.0,30.09,ENE,68,0.0,0.0,94,0.00,,---,0.00,VWS V14.01,2013-10-11 07:00:00,
2013-10-11 00:04:00,49.3,47.6,30.09,ENE,68,0.0,0.0,94,0.00,,---,0.00,VWS V14.01,2013-10-11 07:04:00,
2013-10-11 00:10:00,49.1,47.5,30.09,ENE,68,0.0,0.0,94,0.00,,---,0.00,VWS V14.01,2013-10-11 07:10:00,
2013-10-11 00:15:00,48.9,47.3,30.09,ENE,68,0.0,0.0,94,0.00,,---,0.00,VWS V14.01,2013-10-11 07:15:00,
2013-10-11 00:20:00,48.9,47.3,30.09,ENE,68,0.0,0.0,94,0.00,,---,0.00,VWS V14.01,2013-10-11 07:20:00,
2013-10-11 00:25:00,48.7,47.1,30.09,ENE,68,0.0,0.0,94,0.00,,---,0.00,VWS V14.01,2013-10-11 07:25:00,
2013-10-11 00:30:00,48.9,47.3,30.09,ENE,68,0.0,0.0,94,0.00,,---,0.00,VWS V14.01,2013-10-11 07:30:00,
2013-10-11 00:35:00,48.9,47.3,30.09,ENE,68,0.0,0.0,94,0.00,,---,0.00,VWS V14.01,2013-10-11 07:35:00,
2013-10-11 00:40:00,48.9,47.3,30.09,ENE,68,0.0,0.0,94,0.00,,---,0.00,VWS V14.01,2013-10-11 07:40:00,
2013-10-11 00:45:00,48.7,47.1,30.09,ENE,68,0.0,0.0,94,0.00,,---,0.00,VWS V14.01,2013-10-11 07:45:00,
2013-10-11 00:50:00,48.7,47.1,30.09,ENE,68,0.0,0.0,94,0.00,,---,0.00,VWS V14.01,2013-10-11 07:50:00,
2013-10-11 00:55:00,48.7,47.1,30.09,ENE,68,0.0,0.0,94,0.00,,---,0.00,VWS V14.01,2013-10-11 07:55:00,
2013-10-11 01:00:00,48.6,46.9,30.09,ENE,68,0.0,0.0,94,0.00,,---,0.00,VWS V14.01,2013-10-11 08:00:00,
2013-10-11 01:05:00,48.4,46.7,30.09,ENE,68,0.0,0.0,94,0.00,,---,0.00,VWS V14.01,2013-10-11 08:05:00,
2013-10-11 01:10:00,48.4,46.7,30.12,ENE,68,0.0,0.0,94,0.00,,---,0.00,VWS V14.01,2013-10-11 08:10:00,
2013-10-11 01:15:00,48.2,46.6,30.12,ESE,112,0.0,0.0,94,0.00,,---,0.00,VWS V14.01,2013-10-11 08:15:00,
2013-10-11 01:20:00,48.2,46.6,30.12,ESE,112,0.0,0.0,94,0.00,,---,0.00,VWS V14.01,2013-10-11 08:20:00,
2013-10-11 01:25:00,48.2,46.6,30.12,ESE,112,0.0,0.0,94,0.00,,---,0.00,VWS V14.01,2013-10-11 08:25:00,
2013-10-11 01:30:00,48.0,46.4,30.12,ESE,112,0.0,0.0,94,0.00,,---,0.00,VWS V14.01,2013-10-11 08:30:00,
2013-10-11 01:35:00,48.0,46.4,30.12,ESE,112,0.0,0.0,94,0.00,,---,0.00,VWS V14.01,2013-10-11 08:35:00,
2013-10-11 01:40:00,48.0,46.4,30.12,ESE,112,0.0,0.0,94,0.00,,---,0.00,VWS V14.01,2013-10-11 08:40:00,
2013-10-11 01:45:00,48.0,46.4,30.12,ESE,112,0.0,0.0,94,0.00,,---,0.00,VWS V14.01,2013-10-11 08:45:00,
2013-10-11 01:50:00,48.2,46.6,30.12,ESE,112,0.0,0.0,94,0.00,,---,0.00,VWS V14.01,2013-10-11 08:50:00,
2013-10-11 01:55:00,48.2,46.6,30.12,ESE,112,0.0,0.0,94,0.00,,---,0.00,VWS V14.01,2013-10-11 08:55:00,
2013-10-11 02:00:00,48.2,46.6,30.12,ESE,112,0.0,0.0,94,0.00,,---,0.00,VWS V14.01,2013-10-11 09:00:00,
2013-10-11 02:05:00,48.2,46.6,30.12,ESE,112,0.0,0.0,94,0.00,,---,0.00,VWS V14.01,2013-10-11 09:05:00,
2013-10-11 02:10:00,48.4,46.7,30.12,ESE,112,0.0,0.0,94,0.00,,---,0.00,VWS V14.01,2013-10-11 09:10:00,
2013-10-11 02:15:00,48.4,46.7,30.12,SE,135,0.0,0.0,94,0.00,,---,0.00,VWS V14.01,2013-10-11 09:15:00,
2013-10-11 02:20:00,48.4,46.7,30.12,SE,135,0.0,0.0,94,0.00,,---,0.00,VWS V14.01,2013-10-11 09:20:00,
2013-10-11 02:25:00,48.4,46.7,30.12,SE,135,0.0,0.0,94,0.00,,---,0.00,VWS V14.01,2013-10-11 09:25:00,
2013-10-11 02:30:00,48.4,46.7,30.12,SE,135,0.0,0.0,94,0.00,,---,0.00,VWS V14.01,2013-10-11 09:30:00,
2013-10-11 02:35:00,48.6,46.9,30.12,SE,135,0.0,0.0,94,0.00,,---,0.00,VWS V14.01,2013-10-11 09:35:00,
2013-10-11 02:40:00,48.6,46.9,30.12,SE,135,0.0,0.0,94,0.00,,---,0.00,VWS V14.01,2013-10-11 09:40:00,
2013-10-11 02:45:00,48.7,47.1,30.12,SE,135,0.0,0.0,94,0.00,,---,0.00,VWS V14.01,2013-10-11 09:45:00,
2013-10-11 02:50:00,48.7,47.1,30.12,SE,135,0.0,0.0,94,0.00,,---,0.00,VWS V14.01,2013-10-11 09:50:00,
2013-10-11 02:55:00,48.7,47.1,30.12,SE,135,0.0,0.0,94,0.00,,---,0.00,VWS V14.01,2013-10-11 09:55:00,
2013-10-11 03:00:00,48.7,47.1,30.12,SE,135,0.0,0.0,94,0.00,,---,0.00,VWS V14.01,2013-10-11 10:00:00,
2013-10-11 03:05:00,48.9,47.5,30.12,SE,135,0.0,0.0,95,0.00,,---,0.00,VWS V14.01,2013-10-11 10:05:00,
2013-10-11 03:10:00,48.9,47.5,30.12,SE,135,0.0,0.0,95,0.00,,---,0.00,VWS V14.01,2013-10-11 10:10:00,
2013-10-11 03:15:00,48.9,47.5,30.12,SE,135,0.0,0.0,95,0.00,,---,0.00,VWS V14.01,2013-10-11 10:15:00,
2013-10-11 03:20:00,49.1,47.7,30.12,SE,135,0.0,0.0,95,0.00,,---,0.00,VWS V14.01,2013-10-11 10:20:00,
2013-10-11 03:25:00,49.1,47.7,30.12,SE,135,0.0,0.0,95,0.00,,---,0.00,VWS V14.01,2013-10-11 10:25:00,
2013-10-11 03:30:00,49.1,47.7,30.12,SE,135,0.0,0.0,95,0.00,,---,0.00,VWS V14.01,2013-10-11 10:30:00,
2013-10-11 03:35:00,49.1,47.7,30.12,SE,135,0.0,0.0,95,0.00,,---,0.00,VWS V14.01,2013-10-11 10:35:00,
2013-10-11 03:40:00,49.3,47.9,30.12,SE,135,0.0,0.0,95,0.00,,---,0.00,VWS V14.01,2013-10-11 10:40:00,
2013-10-11 03:45:00,49.3,47.9,30.12,SE,135,0.0,0.0,95,0.00,,---,0.00,VWS V14.01,2013-10-11 10:45:00,
2013-10-11 03:50:00,49.3,47.9,30.12,SE,135,0.0,0.0,95,0.00,,---,0.00,VWS V14.01,2013-10-11 10:50:00,
2013-10-11 03:51:00,49.3,47.9,30.12,SE,135,0.0,0.0,95,0.00,,---,0.00,VWS V14.01,2013-10-11 10:51:00,
2013-10-11 03:56:00,49.3,47.9,30.12,SE,135,0.0,0.0,95,0.00,,---,0.00,VWS V14.01,2013-10-11 10:56:00,
2013-10-11 04:00:00,49.3,47.9,30.12,SE,135,0.0,0.0,95,0.00,,---,0.00,VWS V14.01,2013-10-11 11:00:00,
2013-10-11 04:01:00,49.3,47.9,30.12,SE,135,0.0,0.0,95,0.00,,---,0.00,VWS V14.01,2013-10-11 11:01:00,
2013-10-11 04:06:00,49.5,48.1,30.12,SE,135,0.0,0.0,95,0.00,,---,0.00,VWS V14.01,2013-10-11 11:06:00,
2013-10-11 04:10:00,49.5,48.1,30.12,SE,135,0.0,0.0,95,0.00,,---,0.00,VWS V14.01,2013-10-11 11:10:00,
2013-10-11 04:11:00,49.5,48.1,30.12,SE,135,0.0,0.0,95,0.00,,---,0.00,VWS V14.01,2013-10-11 11:11:00,
2013-10-11 04:16:00,49.5,48.1,30.12,SE,135,0.0,0.0,95,0.00,,---,0.00,VWS V14.01,2013-10-11 11:16:00,
2013-10-11 04:20:00,49.3,47.9,30.12,SE,135,0.0,0.0,95,0.00,,---,0.00,VWS V14.01,2013-10-11 11:20:00,
2013-10-11 04:21:00,49.3,48.2,30.12,SE,135,0.0,0.0,96,0.00,,---,0.00,VWS V14.01,2013-10-11 11:21:00,
2013-10-11 04:26:00,49.1,48.0,30.12,SE,135,0.0,0.0,96,0.00,,---,0.00,VWS V14.01,2013-10-11 11:26:00,
2013-10-11 04:30:00,49.1,48.0,30.12,SE,135,0.0,0.0,96,0.00,,---,0.00,VWS V14.01,2013-10-11 11:30:00,
2013-10-11 04:31:00,49.3,48.2,30.12,SE,135,0.0,0.0,96,0.00,,---,0.00,VWS V14.01,2013-10-11 11:31:00,
2013-10-11 04:36:00,49.3,48.2,30.12,SE,135,0.0,0.0,96,0.00,,---,0.00,VWS V14.01,2013-10-11 11:36:00,
2013-10-11 04:40:00,49.5,48.4,30.12,SE,135,0.0,0.0,96,0.00,,---,0.00,VWS V14.01,2013-10-11 11:40:00,
2013-10-11 04:41:00,49.5,48.4,30.12,SE,135,0.0,0.0,96,0.00,,---,0.00,VWS V14.01,2013-10-11 11:41:00,
2013-10-11 04:46:00,49.5,48.4,30.12,SE,135,0.0,0.0,96,0.00,,---,0.00,VWS V14.01,2013-10-11 11:46:00,
2013-10-11 04:50:00,49.6,48.5,30.12,SE,135,0.0,0.0,96,0.00,,---,0.00,VWS V14.01,2013-10-11 11:50:00,
2013-10-11 04:51:00,49.6,48.5,30.12,SE,135,0.0,0.0,96,0.00,,---,0.00,VWS V14.01,2013-10-11 11:51:00,
2013-10-11 04:56:00,49.6,48.5,30.12,SE,135,0.0,0.0,96,0.00,,---,0.00,VWS V14.01,2013-10-11 11:56:00,
2013-10-11 05:00:00,49.6,48.5,30.12,SE,135,0.0,0.0,96,0.00,,---,0.00,VWS V14.01,2013-10-11 12:00:00,
2013-10-11 05:01:00,49.8,48.7,30.12,SE,135,0.0,0.0,96,0.00,,---,0.00,VWS V14.01,2013-10-11 12:01:00,
2013-10-11 05:06:00,49.8,48.7,30.12,SE,135,0.0,0.0,96,0.00,,---,0.00,VWS V14.01,2013-10-11 12:06:00,
2013-10-11 05:10:00,49.8,48.7,30.12,SE,135,0.0,0.0,96,0.00,,---,0.00,VWS V14.01,2013-10-11 12:10:00,
2013-10-11 05:11:00,49.8,48.7,30.12,SE,135,0.0,0.0,96,0.00,,---,0.00,VWS V14.01,2013-10-11 12:11:00,
2013-10-11 05:16:00,49.8,48.7,30.12,SE,135,0.0,0.0,96,0.00,,---,0.00,VWS V14.01,2013-10-11 12:16:00,
2013-10-11 05:20:00,49.8,48.7,30.12,SE,135,0.0,0.0,96,0.00,,---,0.00,VWS V14.01,2013-10-11 12:20:00,
2013-10-11 05:21:00,49.8,48.7,30.12,SE,135,0.0,0.0,96,0.00,,---,0.00,VWS V14.01,2013-10-11 12:21:00,
2013-10-11 05:26:00,50.0,48.9,30.12,SE,135,0.0,0.0,96,0.00,,---,0.00,VWS V14.01,2013-10-11 12:26:00,
2013-10-11 05:30:00,50.0,48.9,30.12,SE,135,0.0,0.0,96,0.00,,---,0.00,VWS V14.01,2013-10-11 12:30:00,
2013-10-11 05:31:00,50.0,48.9,30.12,SE,135,0.0,0.0,96,0.00,,---,0.00,VWS V14.01,2013-10-11 12:31:00,
2013-10-11 05:36:00,50.0,48.9,30.12,SE,135,0.0,0.0,96,0.00,,---,0.00,VWS V14.01,2013-10-11 12:36:00,
2013-10-11 05:40:00,50.0,48.9,30.12,SE,135,0.0,0.0,96,0.00,,---,0.00,VWS V14.01,2013-10-11 12:40:00,
2013-10-11 05:41:00,50.0,48.9,30.12,SE,135,0.0,0.0,96,0.00,,---,0.00,VWS V14.01,2013-10-11 12:41:00,
2013-10-11 05:46:00,50.0,48.9,30.12,SE,135,0.0,0.0,96,0.00,,---,0.00,VWS V14.01,2013-10-11 12:46:00,
2013-10-11 05:50:00,50.0,48.9,30.12,SE,135,0.0,0.0,96,0.00,,---,0.00,VWS V14.01,2013-10-11 12:50:00,
2013-10-11 05:51:00,50.2,49.1,30.12,SE,135,0.0,0.0,96,0.00,,---,0.00,VWS V14.01,2013-10-11 12:51:00,
2013-10-11 05:56:00,50.2,49.1,30.12,WNW,292,0.0,0.0,96,0.00,,---,0.00,VWS V14.01,2013-10-11 12:56:00,
2013-10-11 06:00:00,50.2,49.1,30.12,WNW,292,0.0,0.0,96,0.00,,---,0.00,VWS V14.01,2013-10-11 13:00:00,
2013-10-11 06:01:00,50.2,49.1,30.12,WNW,292,0.0,0.0,96,0.00,,---,0.00,VWS V14.01,2013-10-11 13:01:00,
2013-10-11 06:06:00,50.2,49.1,30.12,WNW,292,0.0,0.0,96,0.00,,---,0.00,VWS V14.01,2013-10-11 13:06:00,
2013-10-11 06:10:00,50.2,49.1,30.12,WNW,292,0.0,0.0,96,0.00,,---,0.00,VWS V14.01,2013-10-11 13:10:00,
2013-10-11 06:11:00,50.2,49.1,30.12,WNW,292,0.0,0.0,96,0.00,,---,0.00,VWS V14.01,2013-10-11 13:11:00,
2013-10-11 06:16:00,50.2,49.1,30.12,WNW,292,0.0,0.0,96,0.00,,---,0.00,VWS V14.01,2013-10-11 13:16:00,
2013-10-11 06:20:00,50.2,49.1,30.12,WNW,292,0.0,0.0,96,0.00,,---,0.00,VWS V14.01,2013-10-11 13:20:00,
2013-10-11 06:21:00,50.2,49.1,30.12,WNW,292,0.0,0.0,96,0.00,,---,0.00,VWS V14.01,2013-10-11 13:21:00,
2013-10-11 06:26:00,50.2,49.1,30.12,WNW,292,0.0,0.0,96,0.00,,---,0.00,VWS V14.01,2013-10-11 13:26:00,
2013-10-11 06:30:00,50.2,49.1,30.12,WNW,292,0.0,0.0,96,0.00,,---,0.00,VWS V14.01,2013-10-11 13:30:00,
2013-10-11 06:31:00,50.2,49.1,30.12,WNW,292,0.0,0.0,96,0.00,,---,0.00,VWS V14.01,2013-10-11 13:31:00,
2013-10-11 06:36:00,50.2,49.1,30.12,WNW,292,0.0,0.0,96,0.00,,---,0.00,VWS V14.01,2013-10-11 13:36:00,
2013-10-11 06:40:00,50.2,49.1,30.12,WNW,292,0.0,0.0,96,0.00,,---,0.00,VWS V14.01,2013-10-11 13:40:00,
2013-10-11 06:41:00,50.2,49.1,30.12,WNW,292,0.0,0.0,96,0.00,,---,0.00,VWS V14.01,2013-10-11 13:41:00,
2013-10-11 06:46:00,50.2,49.1,30.12,WNW,292,0.0,0.0,96,0.00,,---,0.00,VWS V14.01,2013-10-11 13:46:00,
2013-10-11 06:50:00,50.2,49.1,30.12,WNW,292,0.0,0.0,96,0.00,,---,0.00,VWS V14.01,2013-10-11 13:50:00,
2013-10-11 06:51:00,50.0,48.9,30.12,WNW,292,0.0,0.0,96,0.00,,---,0.00,VWS V14.01,2013-10-11 13:51:00,
2013-10-11 06:56:00,50.0,48.9,30.12,WNW,292,0.0,0.0,96,0.00,,---,0.00,VWS V14.01,2013-10-11 13:56:00,
2013-10-11 07:00:00,50.0,48.9,30.12,WNW,292,0.0,0.0,96,0.00,,---,0.00,VWS V14.01,2013-10-11 14:00:00,
2013-10-11 07:01:00,50.0,48.9,30.12,WNW,292,0.0,0.0,96,0.00,,---,0.00,VWS V14.01,2013-10-11 14:01:00,
2013-10-11 07:06:00,50.0,48.9,30.12,WNW,292,0.0,0.0,96,0.00,,---,0.00,VWS V14.01,2013-10-11 14:06:00,
2013-10-11 07:10:00,50.0,48.9,30.12,WNW,292,0.0,0.0,96,0.00,,---,0.00,VWS V14.01,2013-10-11 14:10:00,
2013-10-11 07:11:00,50.0,48.9,30.12,WNW,292,0.0,0.0,96,0.00,,---,0.00,VWS V14.01,2013-10-11 14:11:00,
2013-10-11 07:16:00,50.0,48.9,30.12,WNW,292,0.0,0.0,96,0.00,,---,0.00,VWS V14.01,2013-10-11 14:16:00,
2013-10-11 07:20:00,50.0,48.9,30.12,WNW,292,0.0,0.0,96,0.00,,---,0.00,VWS V14.01,2013-10-11 14:20:00,
2013-10-11 07:21:00,50.0,48.9,30.12,WNW,292,0.0,0.0,96,0.00,,---,0.00,VWS V14.01,2013-10-11 14:21:00,
2013-10-11 07:27:00,50.0,48.9,30.12,WNW,292,0.0,0.0,96,0.00,,---,0.00,VWS V14.01,2013-10-11 14:27:00,
2013-10-11 07:30:00,50.0,48.9,30.12,WNW,292,0.0,0.0,96,0.00,,---,0.00,VWS V14.01,2013-10-11 14:30:00,
2013-10-11 07:32:00,50.0,48.9,30.12,WNW,292,0.0,0.0,96,0.00,,---,0.00,VWS V14.01,2013-10-11 14:32:00,
2013-10-11 07:37:00,49.8,49.0,30.12,WNW,292,0.0,0.0,97,0.00,,---,0.00,VWS V14.01,2013-10-11 14:37:00,
2013-10-11 07:40:00,49.8,49.0,30.12,WNW,292,0.0,0.0,97,0.00,,---,0.00,VWS V14.01,2013-10-11 14:40:00,
2013-10-11 07:42:00,50.0,48.9,30.12,WNW,292,0.0,0.0,96,0.00,,---,0.00,VWS V14.01,2013-10-11 14:42:00,
2013-10-11 07:47:00,50.0,48.9,30.12,WNW,292,0.0,0.0,96,0.00,,---,0.00,VWS V14.01,2013-10-11 14:47:00,
2013-10-11 07:50:00,50.0,49.2,30.12,WNW,292,0.0,0.0,97,0.00,,---,0.00,VWS V14.01,2013-10-11 14:50:00,
2013-10-11 07:52:00,50.0,49.2,30.12,WNW,292,0.0,0.0,97,0.00,,---,0.00,VWS V14.01,2013-10-11 14:52:00,
2013-10-11 07:57:00,50.0,49.2,30.12,WNW,292,0.0,0.0,97,0.00,,---,0.00,VWS V14.01,2013-10-11 14:57:00,
2013-10-11 08:00:00,50.0,49.2,30.12,WNW,292,0.0,0.0,97,0.00,,---,0.00,VWS V14.01,2013-10-11 15:00:00,
2013-10-11 08:02:00,50.0,49.2,30.12,WNW,292,0.0,0.0,97,0.00,,---,0.00,VWS V14.01,2013-10-11 15:02:00,
2013-10-11 08:07:00,50.2,49.1,30.12,WNW,292,0.0,0.0,96,0.00,,---,0.00,VWS V14.01,2013-10-11 15:07:00,
2013-10-11 08:10:00,50.2,49.1,30.12,WNW,292,0.0,0.0,96,0.00,,---,0.00,VWS V14.01,2013-10-11 15:10:00,
2013-10-11 08:12:00,50.2,49.1,30.12,WNW,292,0.0,0.0,96,0.00,,---,0.00,VWS V14.01,2013-10-11 15:12:00,
2013-10-11 08:17:00,50.2,49.1,30.12,WNW,292,0.0,0.0,96,0.00,,---,0.00,VWS V14.01,2013-10-11 15:17:00,
2013-10-11 08:20:00,50.4,49.3,30.12,WNW,292,0.0,0.0,96,0.00,,---,0.00,VWS V14.01,2013-10-11 15:20:00,
2013-10-11 08:22:00,50.4,49.3,30.12,WNW,292,0.0,0.0,96,0.00,,---,0.00,VWS V14.01,2013-10-11 15:22:00,
2013-10-11 08:27:00,50.5,49.5,30.12,WNW,292,0.0,0.0,96,0.00,,---,0.00,VWS V14.01,2013-10-11 15:27:00,
2013-10-11 08:30:00,50.5,49.4,30.12,WNW,292,0.0,0.0,96,0.00,,---,0.00,VWS V14.01,2013-10-11 15:30:00,
2013-10-11 08:32:00,50.5,49.5,30.12,WNW,292,0.0,0.0,96,0.00,,---,0.00,VWS V14.01,2013-10-11 15:32:00,
2013-10-11 08:37:00,50.7,49.6,30.12,WNW,292,0.0,0.0,96,0.00,,---,0.00,VWS V14.01,2013-10-11 15:37:00,
2013-10-11 08:42:00,50.9,49.8,30.12,WNW,292,0.0,0.0,96,0.00,,---,0.00,VWS V14.01,2013-10-11 15:42:00,
2013-10-11 08:47:00,50.9,49.8,30.12,WNW,292,0.0,0.0,96,0.00,,---,0.00,VWS V14.01,2013-10-11 15:47:00,
2013-10-11 08:50:00,51.1,50.0,30.12,WNW,292,0.0,0.0,96,0.00,,---,0.00,VWS V14.01,2013-10-11 15:50:00,
2013-10-11 08:52:00,51.1,50.0,30.12,WNW,292,0.0,0.0,96,0.00,,---,0.00,VWS V14.01,2013-10-11 15:52:00,
2013-10-11 08:57:00,51.1,50.0,30.12,WNW,292,0.0,0.0,96,0.00,,---,0.00,VWS V14.01,2013-10-11 15:57:00,
2013-10-11 09:00:00,51.3,50.2,30.12,WNW,292,0.0,0.0,96,0.00,,---,0.00,VWS V14.01,2013-10-11 16:00:00,
2013-10-11 09:02:00,51.3,50.2,30.12,WNW,292,0.0,0.0,96,0.00,,---,0.00,VWS V14.01,2013-10-11 16:02:00,
2013-10-11 09:07:00,51.3,50.2,30.12,WNW,292,0.0,0.0,96,0.00,,---,0.00,VWS V14.01,2013-10-11 16:07:00,
2013-10-11 09:10:00,51.4,50.3,30.12,WNW,292,0.0,0.0,96,0.00,,---,0.00,VWS V14.01,2013-10-11 16:10:00,
2013-10-11 09:12:00,51.4,50.3,30.12,WNW,292,0.0,0.0,96,0.00,,---,0.00,VWS V14.01,2013-10-11 16:12:00,
2013-10-11 09:17:00,51.6,50.5,30.12,NW,315,0.0,0.0,96,0.00,,---,0.00,VWS V14.01,2013-10-11 16:17:00,
2013-10-11 09:20:00,51.6,50.5,30.12,WNW,292,0.0,0.0,96,0.00,,---,0.00,VWS V14.01,2013-10-11 16:20:00,
2013-10-11 09:22:00,51.6,50.5,30.12,NNW,338,0.0,0.0,96,0.00,,---,0.00,VWS V14.01,2013-10-11 16:22:00,
2013-10-11 09:27:00,51.6,50.5,30.12,NNW,338,0.0,0.0,96,0.00,,---,0.00,VWS V14.01,2013-10-11 16:27:00,
2013-10-11 09:30:00,51.8,50.4,30.12,WNW,292,0.0,0.0,95,0.00,,---,0.00,VWS V14.01,2013-10-11 16:30:00,
2013-10-11 09:32:00,52.0,50.6,30.12,NNW,338,2.5,2.5,95,0.00,,---,0.00,VWS V14.01,2013-10-11 16:32:00,
2013-10-11 09:37:00,52.0,50.6,30.12,North,0,1.1,3.1,95,0.00,,---,0.00,VWS V14.01,2013-10-11 16:37:00,
2013-10-11 09:40:00,52.2,50.8,30.12,NW,315,0.0,3.1,95,0.00,,---,0.00,VWS V14.01,2013-10-11 16:40:00,
2013-10-11 09:42:00,52.2,50.8,30.12,NNW,338,1.1,2.0,95,0.00,,---,0.00,VWS V14.01,2013-10-11 16:42:00,
2013-10-11 09:47:00,52.3,51.0,30.12,NNW,338,2.7,3.4,95,0.00,,---,0.00,VWS V14.01,2013-10-11 16:47:00,
2013-10-11 09:50:00,52.3,51.0,30.12,NNW,338,1.3,3.4,95,0.00,,---,0.00,VWS V14.01,2013-10-11 16:50:00,
2013-10-11 09:52:00,52.5,51.1,30.12,NNW,338,0.0,1.3,95,0.00,,---,0.00,VWS V14.01,2013-10-11 16:52:00,
2013-10-11 09:57:00,52.7,51.3,30.12,WNW,292,5.6,5.6,95,0.00,,---,0.00,VWS V14.01,2013-10-11 16:57:00,
2013-10-11 10:00:00,52.7,51.3,30.12,WNW,292,2.7,5.6,95,0.00,,---,0.00,VWS V14.01,2013-10-11 17:00:00,
2013-10-11 10:02:00,52.7,51.0,30.12,NNW,338,4.7,4.7,94,0.00,,---,0.00,VWS V14.01,2013-10-11 17:02:00,
2013-10-11 10:07:00,52.9,51.2,30.12,NW,315,1.6,4.7,94,0.00,,---,0.00,VWS V14.01,2013-10-11 17:07:00,
2013-10-11 10:10:00,52.9,51.2,30.12,WNW,292,2.7,4.7,94,0.00,,---,0.00,VWS V14.01,2013-10-11 17:10:00,
2013-10-11 10:12:00,53.1,51.4,30.12,North,0,2.2,2.7,94,0.00,,---,0.00,VWS V14.01,2013-10-11 17:12:00,
2013-10-11 10:17:00,53.4,51.7,30.12,NNE,22,0.9,3.1,94,0.00,,---,0.00,VWS V14.01,2013-10-11 17:17:00,
2013-10-11 10:20:00,53.4,51.7,30.12,NE,45,2.9,3.1,94,0.00,,---,0.00,VWS V14.01,2013-10-11 17:20:00,
2013-10-11 10:22:00,53.6,51.6,30.12,NE,45,0.9,2.9,93,0.00,,---,0.00,VWS V14.01,2013-10-11 17:22:00,
2013-10-11 10:27:00,53.6,51.6,30.12,NNW,338,1.1,3.1,93,0.00,,---,0.00,VWS V14.01,2013-10-11 17:27:00,
2013-10-11 10:30:00,53.8,51.8,30.12,NNW,338,4.3,4.3,93,0.00,,---,0.00,VWS V14.01,2013-10-11 17:30:00,
2013-10-11 10:32:00,53.8,51.8,30.12,NW,315,3.4,4.5,93,0.00,,---,0.00,VWS V14.01,2013-10-11 17:32:00,
2013-10-11 10:37:00,54.0,52.0,30.12,North,0,0.9,5.6,93,0.00,,---,0.00,VWS V14.01,2013-10-11 17:37:00,
2013-10-11 10:40:00,54.0,52.0,30.12,WNW,292,2.7,5.6,93,0.00,,---,0.00,VWS V14.01,2013-10-11 17:40:00,
2013-10-11 10:43:00,54.1,51.9,30.12,WNW,292,3.8,3.8,92,0.00,,---,0.00,VWS V14.01,2013-10-11 17:43:00,
2013-10-11 10:48:00,54.3,52.0,30.12,NNE,22,1.3,4.3,92,0.00,,---,0.00,VWS V14.01,2013-10-11 17:48:00,
2013-10-11 10:50:00,54.1,51.9,30.12,WNW,292,2.5,4.3,92,0.00,,---,0.00,VWS V14.01,2013-10-11 17:50:00,
2013-10-11 10:53:00,54.3,52.0,30.12,NNW,338,3.1,3.4,92,0.00,,---,0.00,VWS V14.01,2013-10-11 17:53:00,
2013-10-11 10:58:00,54.3,52.0,30.12,WNW,292,4.0,4.0,92,0.00,,---,0.00,VWS V14.01,2013-10-11 17:58:00,
2013-10-11 11:03:00,54.5,52.2,30.12,NNW,338,3.6,4.0,92,0.00,,---,0.00,VWS V14.01,2013-10-11 18:03:00,
2013-10-11 11:08:00,54.5,52.2,30.12,NNW,338,1.6,5.4,92,0.00,,---,0.00,VWS V14.01,2013-10-11 18:08:00,
2013-10-11 11:10:00,54.5,52.2,30.12,NNW,338,3.4,5.4,92,0.00,,---,0.00,VWS V14.01,2013-10-11 18:10:00,
2013-10-11 11:13:00,54.7,52.4,30.12,NNW,338,4.9,5.4,92,0.00,,---,0.00,VWS V14.01,2013-10-11 18:13:00,
2013-10-11 11:18:00,54.7,52.4,30.12,WNW,292,6.5,6.5,92,0.00,,---,0.00,VWS V14.01,2013-10-11 18:18:00,
2013-10-11 11:20:00,54.7,52.4,30.12,WNW,292,3.1,6.5,92,0.00,,---,0.00,VWS V14.01,2013-10-11 18:20:00,
2013-10-11 11:23:00,54.7,52.1,30.12,NW,315,2.5,3.1,91,0.00,,---,0.00,VWS V14.01,2013-10-11 18:23:00,
2013-10-11 11:28:00,54.9,52.3,30.12,NW,315,4.3,4.3,91,0.00,,---,0.00,VWS V14.01,2013-10-11 18:28:00,
2013-10-11 11:30:00,54.9,52.0,30.12,NW,315,1.1,4.3,90,0.00,,---,0.00,VWS V14.01,2013-10-11 18:30:00,
2013-10-11 11:33:00,54.9,52.0,30.12,NNW,338,4.0,4.0,90,0.00,,---,0.00,VWS V14.01,2013-10-11 18:33:00,
2013-10-11 11:38:00,54.9,52.0,30.12,West,270,2.9,4.9,90,0.00,,---,0.00,VWS V14.01,2013-10-11 18:38:00,
2013-10-11 11:40:00,54.9,52.0,30.12,NNW,338,2.7,4.9,90,0.00,,---,0.00,VWS V14.01,2013-10-11 18:40:00,
2013-10-11 11:43:00,54.9,52.0,30.12,NNE,22,2.5,2.7,90,0.00,,---,0.00,VWS V14.01,2013-10-11 18:43:00,
2013-10-11 11:48:00,55.0,51.9,30.12,NNW,338,2.7,3.8,89,0.00,,---,0.00,VWS V14.01,2013-10-11 18:48:00,
2013-10-11 11:50:00,55.0,51.9,30.12,NNW,338,2.9,3.8,89,0.00,,---,0.00,VWS V14.01,2013-10-11 18:50:00,
2013-10-11 11:53:00,55.2,52.0,30.12,NNW,338,5.6,6.0,89,0.00,,---,0.00,VWS V14.01,2013-10-11 18:53:00,
2013-10-11 11:58:00,55.2,51.7,30.12,NNW,338,3.4,6.0,88,0.00,,---,0.00,VWS V14.01,2013-10-11 18:58:00,
2013-10-11 12:00:00,55.4,51.9,30.12,ESE,112,4.3,6.0,88,0.00,,---,0.00,VWS V14.01,2013-10-11 19:00:00,
2013-10-11 12:03:00,55.6,51.8,30.12,WNW,292,2.0,5.4,87,0.00,,---,0.00,VWS V14.01,2013-10-11 19:03:00,
2013-10-11 12:08:00,55.8,51.6,30.12,WNW,292,5.4,6.9,86,0.00,,---,0.00,VWS V14.01,2013-10-11 19:08:00,
2013-10-11 12:10:00,55.8,51.6,30.12,NNW,338,3.6,6.9,86,0.00,,---,0.00,VWS V14.01,2013-10-11 19:10:00,
2013-10-11 12:13:00,55.9,51.8,30.12,WNW,292,5.6,5.6,86,0.00,,---,0.00,VWS V14.01,2013-10-11 19:13:00,
2013-10-11 12:18:00,55.9,51.5,30.12,North,0,4.9,5.6,85,0.00,,---,0.00,VWS V14.01,2013-10-11 19:18:00,
2013-10-11 12:20:00,55.9,51.5,30.12,NW,315,3.6,5.6,85,0.00,,---,0.00,VWS V14.01,2013-10-11 19:20:00,
2013-10-11 12:23:00,55.9,51.5,30.09,WNW,292,6.0,6.0,85,0.00,,---,0.00,VWS V14.01,2013-10-11 19:23:00,
2013-10-11 12:28:00,55.9,51.5,30.09,WNW,292,4.3,8.5,85,0.00,,---,0.00,VWS V14.01,2013-10-11 19:28:00,
2013-10-11 12:30:00,56.1,51.7,30.09,WNW,292,4.7,8.5,85,0.00,,---,0.00,VWS V14.01,2013-10-11 19:30:00,
2013-10-11 12:33:00,56.1,51.4,30.09,WNW,292,4.0,5.4,84,0.00,,---,0.00,VWS V14.01,2013-10-11 19:33:00,
2013-10-11 12:38:00,55.9,51.2,30.12,NNW,338,4.9,7.4,84,0.00,,---,0.00,VWS V14.01,2013-10-11 19:38:00,
2013-10-11 12:40:00,55.9,51.2,30.12,WNW,292,7.2,7.8,84,0.00,,---,0.00,VWS V14.01,2013-10-11 19:40:00,
2013-10-11 12:43:00,55.9,51.5,30.12,NNW,338,7.8,7.8,85,0.00,,---,0.00,VWS V14.01,2013-10-11 19:43:00,
2013-10-11 12:48:00,55.8,51.0,30.12,WNW,292,4.5,7.8,84,0.00,,---,0.00,VWS V14.01,2013-10-11 19:48:00,
2013-10-11 12:50:00,55.8,51.0,30.12,NNW,338,7.6,7.8,84,0.00,,---,0.00,VWS V14.01,2013-10-11 19:50:00,
2013-10-11 12:53:00,55.8,51.0,30.12,NNW,338,5.8,8.7,84,0.00,,---,0.00,VWS V14.01,2013-10-11 19:53:00,
2013-10-11 12:58:00,55.6,50.8,30.12,NNW,338,7.2,8.7,84,0.00,,---,0.00,VWS V14.01,2013-10-11 19:58:00,
2013-10-11 13:00:00,55.6,50.8,30.12,NNW,338,4.9,8.7,84,0.00,,---,0.00,VWS V14.01,2013-10-11 20:00:00,
2013-10-11 13:03:00,55.6,50.8,30.12,NNW,338,2.9,5.8,84,0.00,,---,0.00,VWS V14.01,2013-10-11 20:03:00,
2013-10-11 13:08:00,55.8,51.0,30.12,WNW,292,4.5,5.8,84,0.00,,---,0.00,VWS V14.01,2013-10-11 20:08:00,
2013-10-11 13:10:00,55.8,51.0,30.12,NW,315,6.0,6.0,84,0.00,,---,0.00,VWS V14.01,2013-10-11 20:10:00,
2013-10-11 13:13:00,55.8,51.0,30.12,NNW,338,6.5,6.5,84,0.00,,---,0.00,VWS V14.01,2013-10-11 20:13:00,
2013-10-11 13:18:00,55.8,51.0,30.12,WNW,292,4.9,8.1,84,0.00,,---,0.00,VWS V14.01,2013-10-11 20:18:00,
2013-10-11 13:20:00,55.8,51.0,30.12,NNW,338,5.6,8.1,84,0.00,,---,0.00,VWS V14.01,2013-10-11 20:20:00,
2013-10-11 13:23:00,55.8,51.0,30.12,NNW,338,8.7,8.7,84,0.00,,---,0.00,VWS V14.01,2013-10-11 20:23:00,
2013-10-11 13:28:00,55.8,51.0,30.12,WNW,292,4.5,8.7,84,0.00,,---,0.00,VWS V14.01,2013-10-11 20:28:00,
2013-10-11 13:30:00,55.8,50.7,30.12,WNW,292,9.4,9.4,83,0.00,,---,0.00,VWS V14.01,2013-10-11 20:30:00,
2013-10-11 13:34:00,55.9,50.9,30.12,NW,315,4.7,9.4,83,0.00,,---,0.00,VWS V14.01,2013-10-11 20:34:00,
2013-10-11 13:39:00,55.9,50.9,30.12,WNW,292,7.6,11.0,83,0.00,,---,0.00,VWS V14.01,2013-10-11 20:39:00,
2013-10-11 13:40:00,55.9,50.9,30.12,WNW,292,7.6,11.0,83,0.00,,---,0.00,VWS V14.01,2013-10-11 20:40:00,
2013-10-11 13:44:00,55.9,50.9,30.12,NNW,338,3.6,9.6,83,0.00,,---,0.00,VWS V14.01,2013-10-11 20:44:00,
2013-10-11 13:49:00,55.9,50.9,30.12,WNW,292,6.0,9.6,83,0.00,,---,0.00,VWS V14.01,2013-10-11 20:49:00,
2013-10-11 13:50:00,55.9,50.5,30.12,WNW,292,4.9,9.6,82,0.00,,---,0.00,VWS V14.01,2013-10-11 20:50:00,
2013-10-11 13:54:00,55.9,50.5,30.12,WNW,292,4.0,6.5,82,0.00,,---,0.00,VWS V14.01,2013-10-11 20:54:00,
2013-10-11 13:59:00,56.1,50.4,30.12,NNW,338,9.0,9.0,81,0.00,,---,0.00,VWS V14.01,2013-10-11 20:59:00,
2013-10-11 14:00:00,55.9,50.2,30.12,WNW,292,5.4,9.0,81,0.00,,---,0.00,VWS V14.01,2013-10-11 21:00:00,
2013-10-11 14:04:00,56.1,49.7,30.12,WNW,292,6.3,6.3,79,0.00,,---,0.00,VWS V14.01,2013-10-11 21:04:00,
2013-10-11 14:09:00,56.1,49.7,30.12,NNW,338,6.0,7.4,79,0.00,,---,0.00,VWS V14.01,2013-10-11 21:09:00,
2013-10-11 14:10:00,56.1,49.7,30.12,WNW,292,5.6,7.4,79,0.00,,---,0.00,VWS V14.01,2013-10-11 21:10:00,
2013-10-11 14:14:00,56.3,49.2,30.12,NNW,338,2.5,5.6,77,0.00,,---,0.00,VWS V14.01,2013-10-11 21:14:00,
2013-10-11 14:19:00,56.3,48.8,30.12,NNW,338,3.8,7.6,76,0.00,,---,0.00,VWS V14.01,2013-10-11 21:19:00,
2013-10-11 14:20:00,56.5,49.0,30.12,NNW,338,4.3,7.6,76,0.00,,---,0.00,VWS V14.01,2013-10-11 21:20:00,
2013-10-11 14:24:00,57.6,49.3,30.12,NNW,338,6.0,10.1,74,0.00,,---,0.00,VWS V14.01,2013-10-11 21:24:00,
2013-10-11 14:29:00,58.5,48.7,30.12,WNW,292,9.8,10.1,70,0.00,,---,0.00,VWS V14.01,2013-10-11 21:29:00,
2013-10-11 14:30:00,58.3,48.2,30.12,WNW,292,6.3,10.1,69,0.00,,---,0.00,VWS V14.01,2013-10-11 21:30:00,
2013-10-11 14:34:00,58.1,48.4,30.12,WNW,292,6.5,7.2,70,0.00,,---,0.00,VWS V14.01,2013-10-11 21:34:00,
2013-10-11 14:39:00,56.8,47.9,30.12,WNW,292,5.8,7.8,72,0.00,,---,0.00,VWS V14.01,2013-10-11 21:39:00,
2013-10-11 14:40:00,56.8,47.9,30.12,WNW,292,7.6,7.8,72,0.00,,---,0.00,VWS V14.01,2013-10-11 21:40:00,
2013-10-11 14:44:00,56.7,47.8,30.12,WNW,292,5.4,8.5,72,0.00,,---,0.00,VWS V14.01,2013-10-11 21:44:00,
2013-10-11 14:49:00,56.5,47.6,30.12,NNW,338,6.5,8.5,72,0.00,,---,0.00,VWS V14.01,2013-10-11 21:49:00,
2013-10-11 14:50:00,56.5,47.9,30.12,NNW,338,3.8,8.5,73,0.00,,---,0.00,VWS V14.01,2013-10-11 21:50:00,
2013-10-11 14:54:00,56.5,47.9,30.12,WNW,292,12.8,12.8,73,0.00,,---,0.00,VWS V14.01,2013-10-11 21:54:00,
2013-10-11 14:59:00,56.7,47.8,30.12,NNW,338,6.3,12.8,72,0.00,,---,0.00,VWS V14.01,2013-10-11 21:59:00,
2013-10-11 15:00:00,56.7,47.8,30.12,NNW,338,6.3,12.8,72,0.00,,---,0.00,VWS V14.01,2013-10-11 22:00:00,
2013-10-11 15:04:00,56.8,47.9,30.12,WNW,292,7.4,7.4,72,0.00,,---,0.00,VWS V14.01,2013-10-11 22:04:00,
2013-10-11 15:09:00,56.8,47.9,30.12,NNE,22,3.6,7.4,72,0.00,,---,0.00,VWS V14.01,2013-10-11 22:09:00,
2013-10-11 15:10:00,56.8,47.9,30.12,WNW,292,5.6,7.4,72,0.00,,---,0.00,VWS V14.01,2013-10-11 22:10:00,
2013-10-11 15:14:00,56.8,47.9,30.12,NNW,338,7.2,7.2,72,0.00,,---,0.00,VWS V14.01,2013-10-11 22:14:00,
2013-10-11 15:19:00,57.0,48.1,30.12,WNW,292,2.9,7.2,72,0.00,,---,0.00,VWS V14.01,2013-10-11 22:19:00,
2013-10-11 15:20:00,57.0,48.1,30.12,NNW,338,2.9,7.2,72,0.00,,---,0.00,VWS V14.01,2013-10-11 22:20:00,
2013-10-11 15:24:00,57.0,48.1,30.09,NNW,338,2.9,6.0,72,0.00,,---,0.00,VWS V14.01,2013-10-11 22:24:00,
2013-10-11 15:29:00,57.0,48.1,30.09,NNW,338,3.8,6.0,72,0.00,,---,0.00,VWS V14.01,2013-10-11 22:29:00,
2013-10-11 15:30:00,57.0,48.1,30.09,NNW,338,5.4,6.0,72,0.00,,---,0.00,VWS V14.01,2013-10-11 22:30:00,
2013-10-11 15:34:00,57.2,47.9,30.09,NNW,338,6.3,6.3,71,0.00,,---,0.00,VWS V14.01,2013-10-11 22:34:00,
2013-10-11 15:39:00,57.2,47.9,30.09,NNW,338,4.3,6.3,71,0.00,,---,0.00,VWS V14.01,2013-10-11 22:39:00,
2013-10-11 15:40:00,57.2,47.9,30.09,NNW,338,4.3,6.3,71,0.00,,---,0.00,VWS V14.01,2013-10-11 22:40:00,
2013-10-11 15:44:00,57.0,47.3,30.09,North,0,3.4,7.8,70,0.00,,---,0.00,VWS V14.01,2013-10-11 22:44:00,
2013-10-11 15:49:00,57.0,47.3,30.09,NW,315,2.0,7.8,70,0.00,,---,0.00,VWS V14.01,2013-10-11 22:49:00,
2013-10-11 15:50:00,57.0,47.3,30.09,NW,315,2.0,7.8,70,0.00,,---,0.00,VWS V14.01,2013-10-11 22:50:00,
2013-10-11 15:54:00,57.0,47.0,30.09,NNW,338,4.9,6.5,69,0.00,,---,0.00,VWS V14.01,2013-10-11 22:54:00,
2013-10-11 15:59:00,57.0,47.0,30.09,WNW,292,5.4,6.5,69,0.00,,---,0.00,VWS V14.01,2013-10-11 22:59:00,
2013-10-11 16:00:00,57.0,47.0,30.09,WNW,292,2.5,6.5,69,0.00,,---,0.00,VWS V14.01,2013-10-11 23:00:00,
2013-10-11 16:04:00,57.0,47.0,30.09,WNW,292,2.0,6.0,69,0.00,,---,0.00,VWS V14.01,2013-10-11 23:04:00,
2013-10-11 16:09:00,57.0,47.0,30.09,NNW,338,7.8,7.8,69,0.00,,---,0.00,VWS V14.01,2013-10-11 23:09:00,
2013-10-11 16:10:00,57.0,47.0,30.09,WNW,292,6.3,7.8,69,0.00,,---,0.00,VWS V14.01,2013-10-11 23:10:00,
2013-10-11 16:14:00,56.7,47.0,30.09,WNW,292,4.5,7.2,70,0.00,,---,0.00,VWS V14.01,2013-10-11 23:14:00,
2013-10-11 16:19:00,56.8,47.2,30.09,NNW,338,5.6,7.2,70,0.00,,---,0.00,VWS V14.01,2013-10-11 23:19:00,
2013-10-11 16:20:00,56.8,47.2,30.09,NNW,338,5.6,7.2,70,0.00,,---,0.00,VWS V14.01,2013-10-11 23:20:00,
2013-10-11 16:24:00,56.8,47.2,30.09,WNW,292,2.7,5.8,70,0.00,,---,0.00,VWS V14.01,2013-10-11 23:24:00,
2013-10-11 16:29:00,56.8,47.2,30.09,WNW,292,6.0,8.7,70,0.00,,---,0.00,VWS V14.01,2013-10-11 23:29:00,
2013-10-11 16:30:00,56.8,47.2,30.09,WNW,292,6.0,8.7,70,0.00,,---,0.00,VWS V14.01,2013-10-11 23:30:00,
2013-10-11 16:34:00,56.8,46.8,30.09,NW,315,5.8,7.6,69,0.00,,---,0.00,VWS V14.01,2013-10-11 23:34:00,
2013-10-11 16:39:00,56.5,46.8,30.09,WNW,292,5.8,7.6,70,0.00,,---,0.00,VWS V14.01,2013-10-11 23:39:00,
2013-10-11 16:40:00,56.5,46.8,30.09,NNW,338,6.3,7.6,70,0.00,,---,0.00,VWS V14.01,2013-10-11 23:40:00,
2013-10-11 16:44:00,56.5,46.8,30.09,NNW,338,2.7,6.5,70,0.00,,---,0.00,VWS V14.01,2013-10-11 23:44:00,
2013-10-11 16:49:00,56.5,46.5,30.09,NNW,338,5.8,6.5,69,0.00,,---,0.00,VWS V14.01,2013-10-11 23:49:00,
2013-10-11 16:50:00,56.5,46.5,30.09,NNW,338,5.8,6.5,69,0.00,,---,0.00,VWS V14.01,2013-10-11 23:50:00,
2013-10-11 16:55:00,56.3,45.9,30.09,WNW,292,4.3,7.6,68,0.00,,---,0.00,VWS V14.01,2013-10-11 23:55:00,
2013-10-11 17:00:00,56.3,46.3,30.09,NNE,22,6.0,7.6,69,0.00,,---,0.00,VWS V14.01,2013-10-12 00:00:00,
2013-10-11 17:05:00,56.1,46.1,30.09,WNW,292,5.8,6.0,69,0.00,,---,0.00,VWS V14.01,2013-10-12 00:05:00,
2013-10-11 17:10:00,55.9,45.9,30.09,NNW,338,3.4,6.3,69,0.00,,---,0.00,VWS V14.01,2013-10-12 00:10:00,
2013-10-11 17:15:00,55.9,46.3,30.09,NW,315,5.6,5.6,70,0.00,,---,0.00,VWS V14.01,2013-10-12 00:15:00,
2013-10-11 17:20:00,55.8,46.1,30.09,NNW,338,2.5,5.6,70,0.00,,---,0.00,VWS V14.01,2013-10-12 00:20:00,
2013-10-11 17:25:00,55.8,46.1,30.09,WNW,292,5.8,5.8,70,0.00,,---,0.00,VWS V14.01,2013-10-12 00:25:00,
2013-10-11 17:30:00,55.8,46.1,30.09,NNW,338,4.7,4.7,70,0.00,,---,0.00,VWS V14.01,2013-10-12 00:30:00,
2013-10-11 17:35:00,55.8,46.1,30.09,NW,315,3.6,5.4,70,0.00,,---,0.00,VWS V14.01,2013-10-12 00:35:00,
2013-10-11 17:40:00,55.6,46.3,30.09,NW,315,5.4,5.4,71,0.00,,---,0.00,VWS V14.01,2013-10-12 00:40:00,
2013-10-11 17:45:00,55.6,46.3,30.09,NNW,338,3.1,7.4,71,0.00,,---,0.00,VWS V14.01,2013-10-12 00:45:00,
2013-10-11 17:50:00,55.4,46.2,30.09,NNW,338,4.7,4.7,71,0.00,,---,0.00,VWS V14.01,2013-10-12 00:50:00,
2013-10-11 17:55:00,55.2,46.0,30.09,North,0,4.0,6.3,71,0.00,,---,0.00,VWS V14.01,2013-10-12 00:55:00,
2013-10-11 18:00:00,55.0,46.2,30.09,NW,315,3.8,3.8,72,0.00,,---,0.00,VWS V14.01,2013-10-12 01:00:00,
2013-10-11 18:05:00,55.0,46.2,30.09,NW,315,2.0,5.4,72,0.00,,---,0.00,VWS V14.01,2013-10-12 01:05:00,
2013-10-11 18:10:00,54.9,46.0,30.09,NNW,338,4.0,4.0,72,0.00,,---,0.00,VWS V14.01,2013-10-12 01:10:00,
2013-10-11 18:15:00,54.7,46.2,30.09,North,0,3.6,5.4,73,0.00,,---,0.00,VWS V14.01,2013-10-12 01:15:00,
2013-10-11 18:20:00,54.5,46.0,30.09,NW,315,4.0,4.0,73,0.00,,---,0.00,VWS V14.01,2013-10-12 01:20:00,
2013-10-11 18:25:00,54.5,46.0,30.09,NNW,338,3.8,6.3,73,0.00,,---,0.00,VWS V14.01,2013-10-12 01:25:00,
2013-10-11 18:30:00,54.3,45.9,30.09,NW,315,3.4,3.4,73,0.00,,---,0.00,VWS V14.01,2013-10-12 01:30:00,
2013-10-11 18:35:00,54.1,45.7,30.09,NNW,338,4.3,4.3,73,0.00,,---,0.00,VWS V14.01,2013-10-12 01:35:00,
2013-10-11 18:40:00,54.1,45.7,30.09,NNW,338,4.9,4.9,73,0.00,,---,0.00,VWS V14.01,2013-10-12 01:40:00,
2013-10-11 18:45:00,54.0,45.9,30.09,WNW,292,4.7,5.6,74,0.00,,---,0.00,VWS V14.01,2013-10-12 01:45:00,
2013-10-11 18:50:00,53.8,45.7,30.09,WNW,292,3.1,3.1,74,0.00,,---,0.00,VWS V14.01,2013-10-12 01:50:00,
2013-10-11 18:55:00,53.8,45.7,30.09,NW,315,3.6,3.6,74,0.00,,---,0.00,VWS V14.01,2013-10-12 01:55:00,
2013-10-11 19:00:00,53.6,45.5,30.09,WNW,292,2.0,2.0,74,0.00,,---,0.00,VWS V14.01,2013-10-12 02:00:00,
2013-10-11 19:05:00,53.6,45.5,30.09,WNW,292,1.3,2.0,74,0.00,,---,0.00,VWS V14.01,2013-10-12 02:05:00,
2013-10-11 19:10:00,53.4,45.7,30.09,NNW,338,1.1,1.1,75,0.00,,---,0.00,VWS V14.01,2013-10-12 02:10:00,
2013-10-11 19:15:00,53.4,45.7,30.09,ENE,68,0.0,2.9,75,0.00,,---,0.00,VWS V14.01,2013-10-12 02:15:00,
2013-10-11 19:20:00,53.1,45.4,30.09,NE,45,0.0,0.0,75,0.00,,---,0.00,VWS V14.01,2013-10-12 02:20:00,
2013-10-11 19:25:00,53.1,45.4,30.09,NNE,22,0.0,0.0,75,0.00,,---,0.00,VWS V14.01,2013-10-12 02:25:00,
2013-10-11 19:30:00,52.9,45.5,30.09,NNW,338,0.0,0.0,76,0.00,,---,0.00,VWS V14.01,2013-10-12 02:30:00,
2013-10-11 19:35:00,52.9,45.5,30.09,NW,315,0.0,0.0,76,0.00,,---,0.00,VWS V14.01,2013-10-12 02:35:00,
2013-10-11 19:40:00,52.7,45.4,30.09,NW,315,0.0,0.0,76,0.00,,---,0.00,VWS V14.01,2013-10-12 02:40:00,
2013-10-11 19:41:00,52.7,45.4,30.09,NW,315,0.0,0.0,76,0.00,,---,0.00,VWS V14.01,2013-10-12 02:41:00,
2013-10-11 19:46:00,52.7,45.7,30.09,NW,315,0.0,0.0,77,0.00,,---,0.00,VWS V14.01,2013-10-12 02:46:00,
2013-10-11 19:50:00,52.5,45.5,30.09,WNW,292,1.3,1.3,77,0.00,,---,0.00,VWS V14.01,2013-10-12 02:50:00,
2013-10-11 19:51:00,52.5,45.5,30.09,NNW,338,0.0,1.3,77,0.00,,---,0.00,VWS V14.01,2013-10-12 02:51:00,
2013-10-11 19:56:00,52.3,45.3,30.09,NNW,338,0.0,1.3,77,0.00,,---,0.00,VWS V14.01,2013-10-12 02:56:00,
2013-10-11 20:00:00,52.3,45.7,30.09,NNW,338,0.0,1.3,78,0.00,,---,0.00,VWS V14.01,2013-10-12 03:00:00,
2013-10-11 20:01:00,52.2,45.5,30.09,NNW,338,0.0,0.0,78,0.00,,---,0.00,VWS V14.01,2013-10-12 03:01:00,
2013-10-11 20:06:00,52.2,45.5,30.09,NE,45,0.0,0.0,78,0.00,,---,0.00,VWS V14.01,2013-10-12 03:06:00,
2013-10-11 20:10:00,52.0,45.3,30.09,NE,45,0.0,0.0,78,0.00,,---,0.00,VWS V14.01,2013-10-12 03:10:00,
2013-10-11 20:11:00,52.0,45.3,30.09,ENE,68,0.0,0.0,78,0.00,,---,0.00,VWS V14.01,2013-10-12 03:11:00,
2013-10-11 20:16:00,51.6,45.3,30.09,ENE,68,0.0,0.0,79,0.00,,---,0.00,VWS V14.01,2013-10-12 03:16:00,
2013-10-11 20:20:00,51.4,45.2,30.09,ENE,68,0.0,0.0,79,0.00,,---,0.00,VWS V14.01,2013-10-12 03:20:00,
2013-10-11 20:21:00,51.4,45.2,30.09,ENE,68,0.0,0.0,79,0.00,,---,0.00,VWS V14.01,2013-10-12 03:21:00,
2013-10-11 20:26:00,51.6,45.7,30.09,ENE,68,0.0,0.0,80,0.00,,---,0.00,VWS V14.01,2013-10-12 03:26:00,
2013-10-11 20:30:00,51.6,45.7,30.09,ENE,68,0.0,0.0,80,0.00,,---,0.00,VWS V14.01,2013-10-12 03:30:00,
2013-10-11 20:31:00,51.6,46.0,30.09,ENE,68,0.0,0.0,81,0.00,,---,0.00,VWS V14.01,2013-10-12 03:31:00,
2013-10-11 20:36:00,51.6,46.0,30.09,ENE,68,0.0,0.0,81,0.00,,---,0.00,VWS V14.01,2013-10-12 03:36:00,
2013-10-11 20:40:00,51.6,46.3,30.09,NW,315,0.0,0.0,82,0.00,,---,0.00,VWS V14.01,2013-10-12 03:40:00,
2013-10-11 20:41:00,51.6,46.3,30.09,NW,315,0.0,0.0,82,0.00,,---,0.00,VWS V14.01,2013-10-12 03:41:00,
2013-10-11 20:46:00,51.4,46.1,30.09,NW,315,0.0,0.0,82,0.00,,---,0.00,VWS V14.01,2013-10-12 03:46:00,
2013-10-11 20:50:00,51.3,46.0,30.09,ENE,68,0.0,0.0,82,0.00,,---,0.00,VWS V14.01,2013-10-12 03:50:00,
2013-10-11 20:51:00,51.3,46.0,30.09,ENE,68,0.0,0.0,82,0.00,,---,0.00,VWS V14.01,2013-10-12 03:51:00,
2013-10-11 20:56:00,50.9,45.6,30.09,ENE,68,0.0,0.0,82,0.00,,---,0.00,VWS V14.01,2013-10-12 03:56:00,
2013-10-11 21:00:00,50.4,45.1,30.09,ENE,68,0.0,0.0,82,0.00,,---,0.00,VWS V14.01,2013-10-12 04:00:00,
2013-10-11 21:01:00,50.4,45.1,30.09,ENE,68,0.0,0.0,82,0.00,,---,0.00,VWS V14.01,2013-10-12 04:01:00,
2013-10-11 21:02:00,50.4,45.1,30.09,ENE,68,0.0,0.0,82,0.00,,---,0.00,VWS V14.01,2013-10-12 04:02:00,
2013-10-11 21:03:00,50.2,44.9,30.09,ENE,68,0.0,0.0,82,0.00,,---,0.00,VWS V14.01,2013-10-12 04:03:00,
2013-10-11 21:07:00,50.2,44.9,30.09,ENE,68,0.0,0.0,82,0.00,,---,0.00,VWS V14.01,2013-10-12 04:07:00,
2013-10-11 21:10:00,50.2,44.9,30.09,ENE,68,0.0,0.0,82,0.00,,---,0.00,VWS V14.01,2013-10-12 04:10:00,
2013-10-11 21:12:00,50.2,44.9,30.09,ENE,68,0.0,0.0,82,0.00,,---,0.00,VWS V14.01,2013-10-12 04:12:00,
2013-10-11 21:17:00,50.0,44.7,30.09,ENE,68,0.0,0.0,82,0.00,,---,0.00,VWS V14.01,2013-10-12 04:17:00,
2013-10-11 21:20:00,49.6,44.7,30.09,ENE,68,0.0,0.0,83,0.00,,---,0.00,VWS V14.01,2013-10-12 04:20:00,
2013-10-11 21:22:00,49.5,44.5,30.09,ENE,68,0.0,0.0,83,0.00,,---,0.00,VWS V14.01,2013-10-12 04:22:00,
2013-10-11 21:27:00,49.3,44.3,30.09,ENE,68,0.0,0.0,83,0.00,,---,0.00,VWS V14.01,2013-10-12 04:27:00,
2013-10-11 21:30:00,49.3,44.3,30.09,ENE,68,0.0,0.0,83,0.00,,---,0.00,VWS V14.01,2013-10-12 04:30:00,
2013-10-11 21:32:00,49.3,44.3,30.09,ENE,68,0.0,0.0,83,0.00,,---,0.00,VWS V14.01,2013-10-12 04:32:00,
2013-10-11 21:37:00,49.3,44.3,30.09,ENE,68,0.0,0.0,83,0.00,,---,0.00,VWS V14.01,2013-10-12 04:37:00,
2013-10-11 21:40:00,49.3,44.3,30.09,ENE,68,0.0,0.0,83,0.00,,---,0.00,VWS V14.01,2013-10-12 04:40:00,
2013-10-11 21:42:00,49.1,44.2,30.09,ENE,68,0.0,0.0,83,0.00,,---,0.00,VWS V14.01,2013-10-12 04:42:00,
2013-10-11 21:47:00,49.1,44.2,30.09,ENE,68,0.0,0.0,83,0.00,,---,0.00,VWS V14.01,2013-10-12 04:47:00,
2013-10-11 21:50:00,48.9,44.0,30.09,ENE,68,0.0,0.0,83,0.00,,---,0.00,VWS V14.01,2013-10-12 04:50:00,
2013-10-11 21:52:00,48.9,44.0,30.09,ENE,68,0.0,0.0,83,0.00,,---,0.00,VWS V14.01,2013-10-12 04:52:00,
2013-10-11 21:57:00,48.7,43.8,30.09,SSE,158,0.0,0.0,83,0.00,,---,0.00,VWS V14.01,2013-10-12 04:57:00,
2013-10-11 22:00:00,48.7,43.8,30.09,SSE,158,0.0,0.0,83,0.00,,---,0.00,VWS V14.01,2013-10-12 05:00:00,
2013-10-11 22:02:00,48.7,43.8,30.09,SSE,158,0.0,0.0,83,0.00,,---,0.00,VWS V14.01,2013-10-12 05:02:00,
2013-10-11 22:07:00,48.7,44.1,30.09,SSE,158,0.0,0.0,84,0.00,,---,0.00,VWS V14.01,2013-10-12 05:07:00,
2013-10-11 22:10:00,48.7,44.1,30.09,SSE,158,0.0,0.0,84,0.00,,---,0.00,VWS V14.01,2013-10-12 05:10:00,
2013-10-11 22:12:00,48.9,44.3,30.09,SSE,158,0.0,0.0,84,0.00,,---,0.00,VWS V14.01,2013-10-12 05:12:00,
2013-10-11 22:18:00,48.9,44.3,30.09,SSE,158,0.0,0.0,84,0.00,,---,0.00,VWS V14.01,2013-10-12 05:18:00,
2013-10-11 22:20:00,48.9,44.3,30.09,SSE,158,0.0,0.0,84,0.00,,---,0.00,VWS V14.01,2013-10-12 05:20:00,
2013-10-11 22:23:00,48.9,44.3,30.09,SSE,158,0.0,0.0,84,0.00,,---,0.00,VWS V14.01,2013-10-12 05:23:00,
2013-10-11 22:28:00,49.1,44.5,30.09,SSE,158,0.0,0.0,84,0.00,,---,0.00,VWS V14.01,2013-10-12 05:28:00,
2013-10-11 22:30:00,49.1,44.5,30.09,SSE,158,0.0,0.0,84,0.00,,---,0.00,VWS V14.01,2013-10-12 05:30:00,
2013-10-11 22:33:00,49.1,44.5,30.09,SSE,158,0.0,0.0,84,0.00,,---,0.00,VWS V14.01,2013-10-12 05:33:00,
2013-10-11 22:38:00,49.3,45.0,30.09,SSE,158,0.0,0.0,85,0.00,,---,0.00,VWS V14.01,2013-10-12 05:38:00,
2013-10-11 22:40:00,49.3,45.0,30.09,SSE,158,0.0,0.0,85,0.00,,---,0.00,VWS V14.01,2013-10-12 05:40:00,
2013-10-11 22:43:00,49.3,45.0,30.09,SSE,158,0.0,0.0,85,0.00,,---,0.00,VWS V14.01,2013-10-12 05:43:00,
2013-10-11 22:48:00,49.3,45.0,30.09,SSE,158,0.0,0.0,85,0.00,,---,0.00,VWS V14.01,2013-10-12 05:48:00,
2013-10-11 22:50:00,49.5,45.2,30.09,SSE,158,0.0,0.0,85,0.00,,---,0.00,VWS V14.01,2013-10-12 05:50:00,
2013-10-11 22:53:00,49.5,45.2,30.09,SSE,158,0.0,0.0,85,0.00,,---,0.00,VWS V14.01,2013-10-12 05:53:00,
2013-10-11 22:58:00,49.5,45.2,30.09,SSE,158,0.0,0.0,85,0.00,,---,0.00,VWS V14.01,2013-10-12 05:58:00,
2013-10-11 23:00:00,49.5,45.2,30.09,SSE,158,0.0,0.0,85,0.00,,---,0.00,VWS V14.01,2013-10-12 06:00:00,
2013-10-11 23:03:00,49.5,45.2,30.09,SSE,158,0.0,0.0,85,0.00,,---,0.00,VWS V14.01,2013-10-12 06:03:00,
2013-10-11 23:09:00,49.5,45.5,30.09,SSE,158,0.0,0.0,86,0.00,,---,0.00,VWS V14.01,2013-10-12 06:09:00,
2013-10-11 23:10:00,49.5,45.5,30.09,SSE,158,0.0,0.0,86,0.00,,---,0.00,VWS V14.01,2013-10-12 06:10:00,
2013-10-11 23:14:00,49.3,45.3,30.09,SSE,158,0.0,0.0,86,0.00,,---,0.00,VWS V14.01,2013-10-12 06:14:00,
2013-10-11 23:19:00,49.3,45.3,30.09,SSE,158,0.0,0.0,86,0.00,,---,0.00,VWS V14.01,2013-10-12 06:19:00,
2013-10-11 23:20:00,49.3,45.3,30.09,SSE,158,0.0,0.0,86,0.00,,---,0.00,VWS V14.01,2013-10-12 06:20:00,
2013-10-11 23:24:00,49.3,45.3,30.09,SSE,158,0.0,0.0,86,0.00,,---,0.00,VWS V14.01,2013-10-12 06:24:00,
2013-10-11 23:29:00,49.3,45.3,30.09,SSE,158,0.0,0.0,86,0.00,,---,0.00,VWS V14.01,2013-10-12 06:29:00,
2013-10-11 23:30:00,49.3,45.3,30.09,SSE,158,0.0,0.0,86,0.00,,---,0.00,VWS V14.01,2013-10-12 06:30:00,
2013-10-11 23:34:00,49.1,45.1,30.09,SSE,158,0.0,0.0,86,0.00,,---,0.00,VWS V14.01,2013-10-12 06:34:00,
2013-10-11 23:39:00,49.1,45.1,30.09,SSE,158,0.0,0.0,86,0.00,,---,0.00,VWS V14.01,2013-10-12 06:39:00,
2013-10-11 23:40:00,48.9,44.9,30.09,SSE,158,0.0,0.0,86,0.00,,---,0.00,VWS V14.01,2013-10-12 06:40:00,
2013-10-11 23:44:00,48.9,44.9,30.09,SSE,158,0.0,0.0,86,0.00,,---,0.00,VWS V14.01,2013-10-12 06:44:00,
2013-10-11 23:49:00,48.9,45.2,30.09,SSE,158,0.0,0.0,87,0.00,,---,0.00,VWS V14.01,2013-10-12 06:49:00,
2013-10-11 23:50:00,48.9,45.2,30.09,SSE,158,0.0,0.0,87,0.00,,---,0.00,VWS V14.01,2013-10-12 06:50:00,
2013-10-11 23:54:00,48.7,45.0,30.09,SSE,158,0.0,0.0,87,0.00,,---,0.00,VWS V14.01,2013-10-12 06:54:00,
2013-10-11 23:59:00,48.7,45.0,30.09,SSE,158,0.0,0.0,87,0.00,,---,0.00,VWS V14.01,2013-10-12 06:59:00,